createdAt,value
2019-04-18T00:04:43.762Z,12
2019-04-18T00:09:46.188Z,14
2019-04-18T00:14:50.190Z,16
2019-04-18T00:19:51.210Z,13
2019-04-18T00:24:53.587Z,16
2019-04-18T00:29:58.536Z,14
2019-04-18T00:34:58.750Z,14
2019-04-18T00:40:01.011Z,13
2019-04-18T00:45:05.164Z,18
2019-04-18T00:50:05.933Z,12
2019-04-18T00:55:08.352Z,21
2019-04-18T01:00:13.638Z,17
2019-04-18T01:05:13.276Z,17
2019-04-18T01:10:15.882Z,14
2019-04-18T01:15:19.933Z,14
2019-04-18T01:20:20.680Z,16
2019-04-18T01:25:23.393Z,15
2019-04-18T01:30:25.887Z,13
2019-04-18T01:35:28.054Z,16
2019-04-18T01:40:30.530Z,19
2019-04-18T01:45:32.984Z,13
2019-04-18T01:50:35.626Z,18
2019-04-18T01:55:37.928Z,16
2019-04-18T02:00:40.657Z,17
2019-04-18T02:05:42.868Z,14
2019-04-18T02:10:46.091Z,18
2019-04-18T02:15:47.782Z,17
2019-04-18T02:20:50.295Z,19
2019-04-18T02:25:52.709Z,15
2019-04-18T02:30:56.700Z,17
2019-04-18T02:35:58.589Z,19
2019-04-18T02:41:00.455Z,14
2019-04-18T02:46:04.478Z,19
2019-04-18T02:51:05.031Z,19
2019-04-18T02:56:07.757Z,20
2019-04-18T03:01:10.322Z,16
2019-04-18T03:06:15.089Z,20
2019-04-18T03:11:18.629Z,31
2019-04-18T03:16:20.845Z,20
2019-04-18T03:21:21.659Z,24
2019-04-18T03:26:23.736Z,24
2019-04-18T03:31:25.854Z,24
2019-04-18T03:36:28.853Z,21
2019-04-18T03:41:31.036Z,24
2019-04-18T03:46:32.164Z,24
2019-04-18T03:51:34.588Z,20
2019-04-18T03:56:37.111Z,21
2019-04-18T04:01:39.905Z,21
2019-04-18T04:06:41.990Z,22
2019-04-18T04:11:44.475Z,25
2019-04-18T04:16:46.995Z,23
2019-04-18T04:21:49.472Z,26
2019-04-18T04:26:51.996Z,21
2019-04-18T04:31:56.136Z,25
2019-04-18T04:36:56.789Z,23
2019-04-18T04:41:59.241Z,21
2019-04-18T04:47:01.787Z,17
2019-04-18T04:52:04.198Z,18
2019-04-18T04:57:06.752Z,18
2019-04-18T05:02:09.821Z,18
2019-04-18T05:07:13.158Z,19
2019-04-18T05:12:14.215Z,20
2019-04-18T05:17:16.522Z,19
2019-04-18T05:22:19.074Z,22
2019-04-18T05:27:21.785Z,21
2019-04-18T05:32:25.851Z,19
2019-04-18T05:37:26.355Z,23
2019-04-18T05:42:28.879Z,21
2019-04-18T05:47:31.308Z,19
2019-04-18T05:52:33.716Z,18
2019-04-18T05:57:36.267Z,20
2019-04-18T06:02:38.942Z,19
2019-04-18T06:07:41.386Z,63
2019-04-18T06:12:43.554Z,47
2019-04-18T06:17:46.214Z,30
2019-04-18T06:22:51.238Z,30
2019-04-18T06:27:51.031Z,22
2019-04-18T06:32:56.785Z,21
2019-04-18T06:37:55.884Z,18
2019-04-18T06:42:58.312Z,19
2019-04-18T06:48:03.888Z,16
2019-04-18T06:53:03.234Z,12
2019-04-18T06:58:05.762Z,10
2019-04-18T07:03:08.905Z,14
2019-04-18T07:13:13.196Z,10
2019-04-18T07:18:15.886Z,9
2019-04-18T07:23:17.992Z,8
2019-04-18T07:28:24.688Z,9
2019-04-18T07:33:23.229Z,9
2019-04-18T07:38:26.550Z,10
2019-04-18T07:43:27.813Z,7
2019-04-18T07:48:30.286Z,8
2019-04-18T07:53:32.754Z,11
2019-04-18T07:58:35.275Z,7
2019-04-18T08:03:40.666Z,7
2019-04-18T08:08:40.235Z,7
2019-04-18T08:13:43.011Z,6
2019-04-18T08:18:45.061Z,5
2019-04-18T08:23:51.273Z,4
2019-04-18T08:28:50.001Z,5
2019-04-18T08:33:53.015Z,6
2019-04-18T08:38:54.879Z,6
2019-04-18T08:43:57.376Z,6
2019-04-18T08:49:02.988Z,6
2019-04-18T08:54:02.281Z,6
2019-04-18T08:59:04.950Z,7
2019-04-18T09:04:07.463Z,6
2019-04-18T09:09:10.696Z,6
2019-04-18T09:14:16.070Z,7
2019-04-18T09:19:17.118Z,7
2019-04-18T09:24:20.185Z,8
2019-04-18T09:29:19.546Z,7
2019-04-18T09:34:22.921Z,6
2019-04-18T09:39:24.381Z,9
2019-04-18T09:44:26.840Z,8
2019-04-18T09:49:29.301Z,8
2019-04-18T09:54:37.367Z,6
2019-04-18T09:59:34.197Z,8
2019-04-18T10:04:37.054Z,7
2019-04-18T10:09:39.135Z,9
2019-04-18T10:14:41.649Z,7
2019-04-18T10:24:46.774Z,8
2019-04-18T10:29:51.750Z,9
2019-04-18T10:34:53.258Z,9
2019-04-18T10:39:53.871Z,8
2019-04-18T10:44:56.346Z,11
2019-04-18T10:49:58.785Z,4
2019-04-18T10:55:01.290Z,5
2019-04-18T11:00:03.777Z,6
2019-04-18T11:05:06.544Z,6
2019-04-18T11:10:08.702Z,7
2019-04-18T11:15:11.079Z,6
2019-04-18T11:20:13.656Z,6
2019-04-18T11:25:16.369Z,6
2019-04-18T11:30:22.684Z,6
2019-04-18T11:35:21.132Z,6
2019-04-18T11:40:28.677Z,6
2019-04-18T11:45:25.857Z,6
2019-04-18T11:50:28.302Z,7
2019-04-18T11:55:31.517Z,6
2019-04-18T12:00:33.226Z,6
2019-04-18T12:05:35.811Z,5
2019-04-18T12:10:38.136Z,7
2019-04-18T12:15:40.653Z,6
2019-04-18T12:20:43.058Z,5
2019-04-18T12:25:45.545Z,7
2019-04-18T12:30:48.284Z,6
2019-04-18T12:35:50.596Z,7
2019-04-18T12:41:05.045Z,6
2019-04-18T12:45:55.409Z,5
2019-04-18T12:50:57.844Z,5
2019-04-18T12:56:01.246Z,6
2019-04-18T13:01:02.778Z,5
2019-04-18T13:06:05.240Z,6
2019-04-18T13:11:07.645Z,7
2019-04-18T13:16:10.100Z,6
2019-04-18T13:21:12.607Z,7
2019-04-18T13:26:15.271Z,5
2019-04-18T13:31:17.488Z,7
2019-04-18T13:36:20.081Z,10
2019-04-18T13:41:22.517Z,7
2019-04-18T13:46:24.864Z,6
2019-04-18T13:51:27.333Z,8
2019-04-18T13:56:29.787Z,6
2019-04-18T14:01:32.260Z,5
2019-04-18T14:06:34.687Z,6
2019-04-18T14:11:37.212Z,5
2019-04-18T14:16:39.633Z,5
2019-04-18T14:21:42.137Z,4
2019-04-18T14:26:44.581Z,4
2019-04-18T14:31:46.992Z,5
2019-04-18T14:36:49.499Z,4
2019-04-18T14:41:51.964Z,7
2019-04-18T14:46:56.543Z,3
2019-04-18T14:51:56.811Z,4
2019-04-18T14:56:59.373Z,6
2019-04-18T15:02:01.823Z,4
2019-04-18T15:07:04.352Z,4
2019-04-18T15:12:06.985Z,4
2019-04-18T15:17:09.384Z,5
2019-04-18T15:22:13.716Z,4
2019-04-18T15:27:14.306Z,5
2019-04-18T15:32:21.972Z,5
2019-04-18T15:37:19.021Z,3
2019-04-18T15:42:21.884Z,4
2019-04-18T15:47:23.889Z,6
2019-04-18T15:52:26.321Z,5
2019-04-18T15:57:28.905Z,5
2019-04-18T16:02:31.234Z,6
2019-04-18T16:07:33.774Z,5
2019-04-18T16:12:37.206Z,5
2019-04-18T16:17:38.665Z,4
2019-04-18T16:27:43.539Z,5
2019-04-18T16:32:49.835Z,5
2019-04-18T16:37:48.500Z,6
2019-04-18T16:42:50.890Z,6
2019-04-18T16:47:53.395Z,6
2019-04-18T16:52:55.863Z,5
2019-04-18T16:57:58.363Z,4
2019-04-18T17:03:00.752Z,5
2019-04-18T17:08:03.178Z,5
2019-04-18T17:13:05.728Z,4
2019-04-18T17:18:08.143Z,10
2019-04-18T17:23:10.809Z,5
2019-04-18T17:28:13.032Z,5
2019-04-18T17:33:15.494Z,5
2019-04-18T17:38:39.014Z,5
2019-04-18T17:43:21.066Z,5
2019-04-18T17:48:22.862Z,6
2019-04-18T17:53:38.072Z,6
2019-04-18T18:03:37.134Z,15
2019-04-18T18:08:32.691Z,11
2019-04-18T18:13:35.600Z,9
2019-04-18T18:18:40.761Z,6
2019-04-18T18:23:44.305Z,6
2019-04-18T18:28:42.519Z,8
2019-04-18T18:33:45.361Z,6
2019-04-18T18:38:47.575Z,28
2019-04-18T18:43:57.322Z,49
2019-04-18T18:48:54.343Z,58
2019-04-18T18:53:55.407Z,40
2019-04-18T18:59:04.399Z,34
2019-04-18T19:04:04.832Z,23
2019-04-18T19:09:19.929Z,16
2019-04-18T19:14:15.731Z,14
2019-04-18T19:19:07.151Z,13
2019-04-18T19:24:13.519Z,20
2019-04-18T19:29:19.658Z,15
2019-04-18T19:34:19.689Z,17
2019-04-18T19:39:37.496Z,14
2019-04-18T19:49:21.846Z,15
2019-04-18T19:54:25.202Z,13
2019-04-18T19:59:28.051Z,9
2019-04-18T20:04:29.856Z,10
2019-04-18T20:09:39.161Z,10
2019-04-18T20:14:34.140Z,9
2019-04-18T20:19:37.386Z,10
2019-04-18T20:24:39.757Z,12
2019-04-18T20:29:45.067Z,10
2019-04-18T20:34:46.599Z,9
2019-04-18T20:40:10.315Z,10
2019-04-18T20:44:54.270Z,10
2019-04-18T20:50:02.501Z,13
2019-04-18T20:55:13.803Z,11
2019-04-18T20:59:56.244Z,11
2019-04-18T21:04:59.676Z,11
2019-04-18T21:10:08.385Z,12
2019-04-18T21:15:08.695Z,10
2019-04-18T21:20:06.088Z,10
2019-04-18T21:25:08.524Z,13
2019-04-18T21:30:11.948Z,14
2019-04-18T21:35:13.543Z,13
2019-04-18T21:40:19.111Z,14
2019-04-18T21:45:25.171Z,9
2019-04-18T21:50:23.870Z,13
2019-04-18T21:55:26.302Z,11
2019-04-18T22:00:30.343Z,12
2019-04-18T22:05:28.416Z,12
2019-04-18T22:10:34.574Z,12
2019-04-18T22:15:37.465Z,12
2019-04-18T22:20:36.561Z,14
2019-04-18T22:25:41.668Z,14
2019-04-18T22:30:42.486Z,12
2019-04-18T22:35:46.387Z,10
2019-04-18T22:40:49.241Z,15
2019-04-18T22:45:49.108Z,10
2019-04-18T22:50:50.774Z,9
2019-04-18T22:55:55.874Z,21
2019-04-18T23:00:55.684Z,10
2019-04-18T23:11:04.246Z,10
2019-04-18T23:16:08.837Z,11
2019-04-18T23:21:10.459Z,12
2019-04-18T23:26:10.936Z,10
2019-04-18T23:31:14.902Z,10
2019-04-18T23:36:13.688Z,11
2019-04-18T23:41:18.853Z,9
2019-04-18T23:46:21.798Z,11
2019-04-18T23:51:19.818Z,12
2019-04-18T23:56:29.899Z,13
